sensor_id;sensor_type;location;lat;lon;timestamp;P1;durP1;ratioP1;P2;durP2;ratioP2
21297;SDS011;10808;48.010;11.326;2022-10-31T00:00:56;13.18;;;4.55;;
21297;SDS011;10808;48.010;11.326;2022-10-31T00:03:23;12.68;;;4.82;;
21297;SDS011;10808;48.010;11.326;2022-10-31T00:05:49;10.88;;;4.35;;
21297;SDS011;10808;48.010;11.326;2022-10-31T00:08:16;12.13;;;4.82;;
21297;SDS011;10808;48.010;11.326;2022-10-31T00:10:43;9.95;;;4.63;;
21297;SDS011;10808;48.010;11.326;2022-10-31T00:13:11;10.20;;;4.57;;
21297;SDS011;10808;48.010;11.326;2022-10-31T00:15:38;11.00;;;4.50;;
21297;SDS011;10808;48.010;11.326;2022-10-31T00:18:06;11.35;;;4.50;;
21297;SDS011;10808;48.010;11.326;2022-10-31T00:20:34;12.30;;;4.50;;
21297;SDS011;10808;48.010;11.326;2022-10-31T00:23:00;11.93;;;4.80;;
21297;SDS011;10808;48.010;11.326;2022-10-31T00:25:27;10.70;;;4.90;;
21297;SDS011;10808;48.010;11.326;2022-10-31T00:27:54;14.23;;;5.07;;
21297;SDS011;10808;48.010;11.326;2022-10-31T00:30:20;15.53;;;5.60;;
21297;SDS011;10808;48.010;11.326;2022-10-31T00:32:46;13.88;;;5.15;;
21297;SDS011;10808;48.010;11.326;2022-10-31T00:35:12;13.75;;;5.13;;
21297;SDS011;10808;48.010;11.326;2022-10-31T00:37:38;11.35;;;4.70;;
21297;SDS011;10808;48.010;11.326;2022-10-31T00:40:05;14.65;;;5.32;;
21297;SDS011;10808;48.010;11.326;2022-10-31T00:42:31;11.75;;;4.97;;
21297;SDS011;10808;48.010;11.326;2022-10-31T00:44:57;10.40;;;5.07;;
21297;SDS011;10808;48.010;11.326;2022-10-31T00:47:23;11.93;;;4.93;;
21297;SDS011;10808;48.010;11.326;2022-10-31T00:49:49;12.98;;;5.32;;
21297;SDS011;10808;48.010;11.326;2022-10-31T00:52:15;15.52;;;5.38;;
21297;SDS011;10808;48.010;11.326;2022-10-31T00:54:41;12.77;;;5.13;;
21297;SDS011;10808;48.010;11.326;2022-10-31T00:57:07;11.38;;;4.90;;
21297;SDS011;10808;48.010;11.326;2022-10-31T00:59:33;13.27;;;5.25;;
21297;SDS011;10808;48.010;11.326;2022-10-31T01:01:59;13.73;;;4.72;;
21297;SDS011;10808;48.010;11.326;2022-10-31T01:04:25;11.13;;;5.55;;
21297;SDS011;10808;48.010;11.326;2022-10-31T01:06:51;14.20;;;5.93;;
21297;SDS011;10808;48.010;11.326;2022-10-31T01:09:18;13.02;;;5.13;;
21297;SDS011;10808;48.010;11.326;2022-10-31T01:11:44;11.10;;;4.75;;
21297;SDS011;10808;48.010;11.326;2022-10-31T01:14:10;15.93;;;5.30;;
21297;SDS011;10808;48.010;11.326;2022-10-31T01:16:36;10.85;;;4.95;;
21297;SDS011;10808;48.010;11.326;2022-10-31T01:19:02;13.82;;;5.28;;
21297;SDS011;10808;48.010;11.326;2022-10-31T01:21:28;17.33;;;5.57;;
21297;SDS011;10808;48.010;11.326;2022-10-31T01:23:55;12.47;;;5.20;;
21297;SDS011;10808;48.010;11.326;2022-10-31T01:26:25;17.42;;;5.35;;
21297;SDS011;10808;48.010;11.326;2022-10-31T01:28:57;14.80;;;5.28;;
21297;SDS011;10808;48.010;11.326;2022-10-31T01:31:30;14.13;;;5.30;;
21297;SDS011;10808;48.010;11.326;2022-10-31T01:33:58;14.83;;;5.20;;
21297;SDS011;10808;48.010;11.326;2022-10-31T01:36:26;13.02;;;5.50;;
21297;SDS011;10808;48.010;11.326;2022-10-31T01:39:01;13.25;;;5.53;;
21297;SDS011;10808;48.010;11.326;2022-10-31T01:41:30;10.30;;;5.47;;
21297;SDS011;10808;48.010;11.326;2022-10-31T01:44:02;11.70;;;4.78;;
21297;SDS011;10808;48.010;11.326;2022-10-31T01:46:53;14.27;;;5.60;;
21297;SDS011;10808;48.010;11.326;2022-10-31T01:49:21;12.73;;;6.03;;
21297;SDS011;10808;48.010;11.326;2022-10-31T01:52:08;13.27;;;5.60;;
21297;SDS011;10808;48.010;11.326;2022-10-31T01:54:37;10.55;;;5.10;;
21297;SDS011;10808;48.010;11.326;2022-10-31T01:57:11;15.48;;;6.00;;
21297;SDS011;10808;48.010;11.326;2022-10-31T01:59:41;15.75;;;5.95;;
21297;SDS011;10808;48.010;11.326;2022-10-31T02:02:11;15.97;;;5.27;;
21297;SDS011;10808;48.010;11.326;2022-10-31T02:04:38;10.82;;;5.18;;
21297;SDS011;10808;48.010;11.326;2022-10-31T02:07:09;12.73;;;5.53;;
21297;SDS011;10808;48.010;11.326;2022-10-31T02:09:40;14.80;;;5.22;;
21297;SDS011;10808;48.010;11.326;2022-10-31T02:12:08;15.03;;;5.10;;
21297;SDS011;10808;48.010;11.326;2022-10-31T02:14:36;11.50;;;5.07;;
21297;SDS011;10808;48.010;11.326;2022-10-31T02:17:03;13.00;;;5.68;;
21297;SDS011;10808;48.010;11.326;2022-10-31T02:30:49;13.10;;;5.28;;
21297;SDS011;10808;48.010;11.326;2022-10-31T02:38:51;14.90;;;5.22;;
21297;SDS011;10808;48.010;11.326;2022-10-31T02:49:48;12.40;;;5.70;;
21297;SDS011;10808;48.010;11.326;2022-10-31T02:52:27;11.27;;;4.70;;
21297;SDS011;10808;48.010;11.326;2022-10-31T02:54:54;13.18;;;5.40;;
21297;SDS011;10808;48.010;11.326;2022-10-31T02:57:23;12.70;;;5.15;;
21297;SDS011;10808;48.010;11.326;2022-10-31T02:59:54;13.90;;;4.95;;
21297;SDS011;10808;48.010;11.326;2022-10-31T03:02:30;9.23;;;4.70;;
21297;SDS011;10808;48.010;11.326;2022-10-31T03:08:35;13.85;;;4.85;;
21297;SDS011;10808;48.010;11.326;2022-10-31T03:11:29;10.13;;;5.00;;
21297;SDS011;10808;48.010;11.326;2022-10-31T03:14:01;17.13;;;5.38;;
21297;SDS011;10808;48.010;11.326;2022-10-31T03:19:06;11.93;;;5.72;;
21297;SDS011;10808;48.010;11.326;2022-10-31T03:21:45;11.45;;;5.40;;
21297;SDS011;10808;48.010;11.326;2022-10-31T03:24:14;12.73;;;5.70;;
21297;SDS011;10808;48.010;11.326;2022-10-31T03:26:43;13.10;;;5.75;;
21297;SDS011;10808;48.010;11.326;2022-10-31T03:29:15;9.85;;;5.45;;
21297;SDS011;10808;48.010;11.326;2022-10-31T03:31:51;13.73;;;5.38;;
21297;SDS011;10808;48.010;11.326;2022-10-31T03:34:22;12.13;;;5.22;;
21297;SDS011;10808;48.010;11.326;2022-10-31T03:36:49;13.18;;;5.15;;
21297;SDS011;10808;48.010;11.326;2022-10-31T03:39:19;11.63;;;5.32;;
21297;SDS011;10808;48.010;11.326;2022-10-31T03:41:53;9.30;;;5.00;;
21297;SDS011;10808;48.010;11.326;2022-10-31T03:44:35;10.15;;;5.57;;
21297;SDS011;10808;48.010;11.326;2022-10-31T03:47:06;12.98;;;4.78;;
21297;SDS011;10808;48.010;11.326;2022-10-31T03:49:32;11.63;;;5.30;;
21297;SDS011;10808;48.010;11.326;2022-10-31T03:52:04;14.10;;;5.68;;
21297;SDS011;10808;48.010;11.326;2022-10-31T03:54:58;12.70;;;5.57;;
21297;SDS011;10808;48.010;11.326;2022-10-31T04:00:43;12.45;;;5.65;;
21297;SDS011;10808;48.010;11.326;2022-10-31T04:03:12;12.53;;;5.80;;
21297;SDS011;10808;48.010;11.326;2022-10-31T04:05:42;8.48;;;4.72;;
21297;SDS011;10808;48.010;11.326;2022-10-31T04:08:12;11.93;;;4.90;;
21297;SDS011;10808;48.010;11.326;2022-10-31T04:10:46;12.88;;;5.57;;
21297;SDS011;10808;48.010;11.326;2022-10-31T04:13:15;11.88;;;5.07;;
21297;SDS011;10808;48.010;11.326;2022-10-31T04:15:46;13.15;;;4.75;;
21297;SDS011;10808;48.010;11.326;2022-10-31T04:18:13;13.43;;;5.43;;
21297;SDS011;10808;48.010;11.326;2022-10-31T04:20:40;12.50;;;5.05;;
21297;SDS011;10808;48.010;11.326;2022-10-31T04:23:18;11.38;;;5.03;;
21297;SDS011;10808;48.010;11.326;2022-10-31T04:25:45;12.02;;;5.05;;
21297;SDS011;10808;48.010;11.326;2022-10-31T04:28:11;13.40;;;5.70;;
21297;SDS011;10808;48.010;11.326;2022-10-31T04:30:37;12.32;;;5.05;;
21297;SDS011;10808;48.010;11.326;2022-10-31T04:33:03;10.07;;;4.63;;
21297;SDS011;10808;48.010;11.326;2022-10-31T04:35:29;12.95;;;5.55;;
21297;SDS011;10808;48.010;11.326;2022-10-31T04:37:55;11.52;;;5.03;;
21297;SDS011;10808;48.010;11.326;2022-10-31T04:40:22;12.23;;;4.90;;
21297;SDS011;10808;48.010;11.326;2022-10-31T04:42:48;10.63;;;4.63;;
21297;SDS011;10808;48.010;11.326;2022-10-31T04:45:14;9.30;;;4.55;;
21297;SDS011;10808;48.010;11.326;2022-10-31T04:47:40;11.20;;;5.00;;
21297;SDS011;10808;48.010;11.326;2022-10-31T04:50:06;11.50;;;4.75;;
21297;SDS011;10808;48.010;11.326;2022-10-31T04:52:32;12.07;;;4.68;;
21297;SDS011;10808;48.010;11.326;2022-10-31T04:55:03;9.68;;;4.70;;
21297;SDS011;10808;48.010;11.326;2022-10-31T04:57:30;13.18;;;4.93;;
21297;SDS011;10808;48.010;11.326;2022-10-31T04:59:56;11.55;;;5.13;;
21297;SDS011;10808;48.010;11.326;2022-10-31T05:02:22;11.00;;;4.93;;
21297;SDS011;10808;48.010;11.326;2022-10-31T05:04:48;11.63;;;5.40;;
21297;SDS011;10808;48.010;11.326;2022-10-31T05:07:14;9.73;;;4.72;;
21297;SDS011;10808;48.010;11.326;2022-10-31T05:09:40;11.60;;;5.28;;
21297;SDS011;10808;48.010;11.326;2022-10-31T05:12:06;10.83;;;5.10;;
21297;SDS011;10808;48.010;11.326;2022-10-31T05:14:32;13.98;;;5.55;;
21297;SDS011;10808;48.010;11.326;2022-10-31T05:16:58;11.35;;;5.55;;
21297;SDS011;10808;48.010;11.326;2022-10-31T05:19:24;9.32;;;5.10;;
21297;SDS011;10808;48.010;11.326;2022-10-31T05:21:50;12.38;;;5.82;;
21297;SDS011;10808;48.010;11.326;2022-10-31T05:24:16;10.20;;;5.03;;
21297;SDS011;10808;48.010;11.326;2022-10-31T05:26:42;9.77;;;5.33;;
21297;SDS011;10808;48.010;11.326;2022-10-31T05:29:08;11.65;;;5.47;;
21297;SDS011;10808;48.010;11.326;2022-10-31T05:31:34;9.75;;;5.22;;
21297;SDS011;10808;48.010;11.326;2022-10-31T05:34:00;12.75;;;5.43;;
21297;SDS011;10808;48.010;11.326;2022-10-31T05:36:26;10.38;;;4.80;;
21297;SDS011;10808;48.010;11.326;2022-10-31T05:38:52;16.05;;;5.78;;
21297;SDS011;10808;48.010;11.326;2022-10-31T05:41:18;13.40;;;4.77;;
21297;SDS011;10808;48.010;11.326;2022-10-31T05:43:44;13.32;;;5.60;;
21297;SDS011;10808;48.010;11.326;2022-10-31T05:46:11;14.20;;;5.80;;
21297;SDS011;10808;48.010;11.326;2022-10-31T05:48:37;12.32;;;5.53;;
21297;SDS011;10808;48.010;11.326;2022-10-31T05:51:03;10.97;;;5.50;;
21297;SDS011;10808;48.010;11.326;2022-10-31T05:53:29;10.27;;;5.28;;
21297;SDS011;10808;48.010;11.326;2022-10-31T05:55:55;10.38;;;5.28;;
21297;SDS011;10808;48.010;11.326;2022-10-31T05:58:21;11.20;;;4.72;;
21297;SDS011;10808;48.010;11.326;2022-10-31T06:00:47;9.98;;;5.38;;
21297;SDS011;10808;48.010;11.326;2022-10-31T06:03:13;11.90;;;5.20;;
21297;SDS011;10808;48.010;11.326;2022-10-31T06:05:39;12.52;;;4.97;;
21297;SDS011;10808;48.010;11.326;2022-10-31T06:08:05;12.00;;;5.03;;
21297;SDS011;10808;48.010;11.326;2022-10-31T06:10:31;10.80;;;4.97;;
21297;SDS011;10808;48.010;11.326;2022-10-31T06:12:57;8.73;;;5.05;;
21297;SDS011;10808;48.010;11.326;2022-10-31T06:15:23;13.33;;;4.80;;
21297;SDS011;10808;48.010;11.326;2022-10-31T06:17:59;12.68;;;5.45;;
21297;SDS011;10808;48.010;11.326;2022-10-31T06:20:26;12.63;;;5.60;;
21297;SDS011;10808;48.010;11.326;2022-10-31T06:22:53;11.33;;;5.87;;
21297;SDS011;10808;48.010;11.326;2022-10-31T06:25:19;16.67;;;5.72;;
21297;SDS011;10808;48.010;11.326;2022-10-31T06:27:45;13.55;;;5.35;;
21297;SDS011;10808;48.010;11.326;2022-10-31T06:30:11;13.15;;;5.63;;
21297;SDS011;10808;48.010;11.326;2022-10-31T06:32:37;11.10;;;5.28;;
21297;SDS011;10808;48.010;11.326;2022-10-31T06:35:03;13.40;;;5.47;;
21297;SDS011;10808;48.010;11.326;2022-10-31T06:37:30;11.07;;;4.67;;
21297;SDS011;10808;48.010;11.326;2022-10-31T06:39:56;8.50;;;4.32;;
21297;SDS011;10808;48.010;11.326;2022-10-31T06:42:22;8.75;;;4.60;;
21297;SDS011;10808;48.010;11.326;2022-10-31T06:44:48;9.75;;;4.65;;
21297;SDS011;10808;48.010;11.326;2022-10-31T06:47:14;11.55;;;4.75;;
21297;SDS011;10808;48.010;11.326;2022-10-31T06:49:40;11.00;;;4.63;;
21297;SDS011;10808;48.010;11.326;2022-10-31T06:52:06;11.02;;;4.78;;
21297;SDS011;10808;48.010;11.326;2022-10-31T06:54:32;12.25;;;5.30;;
21297;SDS011;10808;48.010;11.326;2022-10-31T06:56:58;13.38;;;5.72;;
21297;SDS011;10808;48.010;11.326;2022-10-31T06:59:24;11.55;;;4.85;;
21297;SDS011;10808;48.010;11.326;2022-10-31T07:01:50;9.53;;;4.80;;
21297;SDS011;10808;48.010;11.326;2022-10-31T07:04:16;12.10;;;5.25;;
21297;SDS011;10808;48.010;11.326;2022-10-31T07:06:42;10.48;;;5.13;;
21297;SDS011;10808;48.010;11.326;2022-10-31T07:09:08;12.70;;;4.70;;
21297;SDS011;10808;48.010;11.326;2022-10-31T07:11:34;11.20;;;5.00;;
21297;SDS011;10808;48.010;11.326;2022-10-31T07:14:00;15.13;;;5.50;;
21297;SDS011;10808;48.010;11.326;2022-10-31T07:16:26;12.90;;;4.93;;
21297;SDS011;10808;48.010;11.326;2022-10-31T07:18:52;11.93;;;4.80;;
21297;SDS011;10808;48.010;11.326;2022-10-31T07:21:18;13.30;;;4.88;;
21297;SDS011;10808;48.010;11.326;2022-10-31T07:23:46;12.02;;;4.78;;
21297;SDS011;10808;48.010;11.326;2022-10-31T07:26:13;10.30;;;4.60;;
21297;SDS011;10808;48.010;11.326;2022-10-31T07:28:39;12.15;;;5.30;;
21297;SDS011;10808;48.010;11.326;2022-10-31T07:31:05;14.10;;;4.93;;
21297;SDS011;10808;48.010;11.326;2022-10-31T07:33:31;11.23;;;5.20;;
21297;SDS011;10808;48.010;11.326;2022-10-31T07:35:57;11.43;;;4.80;;
21297;SDS011;10808;48.010;11.326;2022-10-31T07:38:23;12.30;;;4.80;;
21297;SDS011;10808;48.010;11.326;2022-10-31T07:40:50;12.70;;;4.85;;
21297;SDS011;10808;48.010;11.326;2022-10-31T07:43:18;11.50;;;4.85;;
21297;SDS011;10808;48.010;11.326;2022-10-31T07:45:48;13.55;;;5.32;;
21297;SDS011;10808;48.010;11.326;2022-10-31T07:48:16;17.43;;;5.97;;
21297;SDS011;10808;48.010;11.326;2022-10-31T07:50:42;14.88;;;5.78;;
21297;SDS011;10808;48.010;11.326;2022-10-31T07:53:09;15.38;;;6.18;;
21297;SDS011;10808;48.010;11.326;2022-10-31T07:55:36;12.27;;;5.60;;
21297;SDS011;10808;48.010;11.326;2022-10-31T07:58:04;16.77;;;5.85;;
21297;SDS011;10808;48.010;11.326;2022-10-31T08:00:32;20.57;;;6.20;;
21297;SDS011;10808;48.010;11.326;2022-10-31T08:03:00;15.73;;;5.80;;
21297;SDS011;10808;48.010;11.326;2022-10-31T08:05:28;12.38;;;5.03;;
21297;SDS011;10808;48.010;11.326;2022-10-31T08:07:54;12.43;;;5.03;;
21297;SDS011;10808;48.010;11.326;2022-10-31T08:10:21;12.18;;;4.93;;
21297;SDS011;10808;48.010;11.326;2022-10-31T08:12:54;10.63;;;4.47;;
21297;SDS011;10808;48.010;11.326;2022-10-31T08:15:23;15.82;;;5.35;;
21297;SDS011;10808;48.010;11.326;2022-10-31T08:17:50;11.07;;;5.00;;
21297;SDS011;10808;48.010;11.326;2022-10-31T08:20:16;12.13;;;4.38;;
21297;SDS011;10808;48.010;11.326;2022-10-31T08:22:42;12.48;;;4.90;;
21297;SDS011;10808;48.010;11.326;2022-10-31T08:25:08;13.17;;;4.80;;
21297;SDS011;10808;48.010;11.326;2022-10-31T08:27:34;13.30;;;5.38;;
21297;SDS011;10808;48.010;11.326;2022-10-31T08:30:00;13.82;;;5.35;;
21297;SDS011;10808;48.010;11.326;2022-10-31T08:32:26;12.25;;;4.97;;
21297;SDS011;10808;48.010;11.326;2022-10-31T08:34:52;16.80;;;4.97;;
21297;SDS011;10808;48.010;11.326;2022-10-31T08:37:18;16.25;;;4.78;;
21297;SDS011;10808;48.010;11.326;2022-10-31T08:39:45;11.93;;;4.38;;
21297;SDS011;10808;48.010;11.326;2022-10-31T08:42:12;11.75;;;3.58;;
21297;SDS011;10808;48.010;11.326;2022-10-31T08:44:38;10.38;;;4.00;;
21297;SDS011;10808;48.010;11.326;2022-10-31T08:47:04;12.95;;;4.20;;
21297;SDS011;10808;48.010;11.326;2022-10-31T08:49:30;11.90;;;4.00;;
21297;SDS011;10808;48.010;11.326;2022-10-31T08:51:56;11.93;;;4.07;;
21297;SDS011;10808;48.010;11.326;2022-10-31T08:54:23;8.95;;;4.05;;
21297;SDS011;10808;48.010;11.326;2022-10-31T08:56:53;12.48;;;4.05;;
21297;SDS011;10808;48.010;11.326;2022-10-31T08:59:19;9.55;;;3.75;;
21297;SDS011;10808;48.010;11.326;2022-10-31T09:01:45;10.95;;;3.80;;
21297;SDS011;10808;48.010;11.326;2022-10-31T09:04:11;13.18;;;4.10;;
21297;SDS011;10808;48.010;11.326;2022-10-31T09:06:37;13.23;;;4.28;;
21297;SDS011;10808;48.010;11.326;2022-10-31T09:09:03;12.55;;;4.60;;
21297;SDS011;10808;48.010;11.326;2022-10-31T09:11:30;14.57;;;4.37;;
21297;SDS011;10808;48.010;11.326;2022-10-31T09:13:56;9.32;;;3.90;;
21297;SDS011;10808;48.010;11.326;2022-10-31T09:16:22;15.27;;;3.95;;
21297;SDS011;10808;48.010;11.326;2022-10-31T09:18:48;9.85;;;4.05;;
21297;SDS011;10808;48.010;11.326;2022-10-31T09:21:14;11.23;;;3.85;;
21297;SDS011;10808;48.010;11.326;2022-10-31T09:23:40;13.63;;;4.25;;
21297;SDS011;10808;48.010;11.326;2022-10-31T09:26:06;9.13;;;3.63;;
21297;SDS011;10808;48.010;11.326;2022-10-31T09:28:32;11.80;;;4.03;;
21297;SDS011;10808;48.010;11.326;2022-10-31T09:30:58;11.30;;;3.13;;
21297;SDS011;10808;48.010;11.326;2022-10-31T09:33:25;11.07;;;3.60;;
21297;SDS011;10808;48.010;11.326;2022-10-31T09:35:51;12.47;;;3.37;;
21297;SDS011;10808;48.010;11.326;2022-10-31T09:38:19;8.65;;;3.40;;
21297;SDS011;10808;48.010;11.326;2022-10-31T09:40:52;9.27;;;3.47;;
21297;SDS011;10808;48.010;11.326;2022-10-31T09:43:33;12.15;;;3.30;;
21297;SDS011;10808;48.010;11.326;2022-10-31T09:46:10;11.67;;;2.87;;
21297;SDS011;10808;48.010;11.326;2022-10-31T09:48:47;8.80;;;3.13;;
21297;SDS011;10808;48.010;11.326;2022-10-31T09:51:33;13.17;;;3.70;;
21297;SDS011;10808;48.010;11.326;2022-10-31T09:54:05;9.20;;;3.10;;
21297;SDS011;10808;48.010;11.326;2022-10-31T09:56:36;8.63;;;3.10;;
21297;SDS011;10808;48.010;11.326;2022-10-31T09:59:04;10.82;;;3.00;;
21297;SDS011;10808;48.010;11.326;2022-10-31T10:06:44;13.07;;;3.33;;
21297;SDS011;10808;48.010;11.326;2022-10-31T10:09:12;11.25;;;3.05;;
21297;SDS011;10808;48.010;11.326;2022-10-31T10:14:18;8.10;;;3.40;;
21297;SDS011;10808;48.010;11.326;2022-10-31T10:17:13;10.73;;;3.23;;
21297;SDS011;10808;48.010;11.326;2022-10-31T10:27:43;10.88;;;2.90;;
21297;SDS011;10808;48.010;11.326;2022-10-31T10:30:32;7.90;;;2.73;;
21297;SDS011;10808;48.010;11.326;2022-10-31T10:33:05;11.73;;;3.10;;
21297;SDS011;10808;48.010;11.326;2022-10-31T10:35:53;11.68;;;3.30;;
21297;SDS011;10808;48.010;11.326;2022-10-31T10:38:27;7.25;;;2.63;;
21297;SDS011;10808;48.010;11.326;2022-10-31T10:40:56;9.70;;;3.22;;
21297;SDS011;10808;48.010;11.326;2022-10-31T10:46:16;10.07;;;2.90;;
21297;SDS011;10808;48.010;11.326;2022-10-31T11:00:16;13.88;;;2.97;;
21297;SDS011;10808;48.010;11.326;2022-10-31T11:02:47;9.95;;;2.80;;
21297;SDS011;10808;48.010;11.326;2022-10-31T11:05:28;11.30;;;2.90;;
21297;SDS011;10808;48.010;11.326;2022-10-31T11:08:32;11.73;;;3.20;;
21297;SDS011;10808;48.010;11.326;2022-10-31T11:14:06;12.07;;;3.20;;
21297;SDS011;10808;48.010;11.326;2022-10-31T11:16:40;11.00;;;3.47;;
21297;SDS011;10808;48.010;11.326;2022-10-31T11:21:41;13.30;;;2.92;;
21297;SDS011;10808;48.010;11.326;2022-10-31T11:26:36;11.97;;;3.00;;
21297;SDS011;10808;48.010;11.326;2022-10-31T11:29:03;10.90;;;3.15;;
21297;SDS011;10808;48.010;11.326;2022-10-31T11:31:31;11.55;;;3.08;;
21297;SDS011;10808;48.010;11.326;2022-10-31T11:34:00;15.70;;;3.75;;
21297;SDS011;10808;48.010;11.326;2022-10-31T11:36:30;9.18;;;3.00;;
21297;SDS011;10808;48.010;11.326;2022-10-31T11:38:59;12.85;;;3.15;;
21297;SDS011;10808;48.010;11.326;2022-10-31T11:41:35;13.63;;;3.03;;
21297;SDS011;10808;48.010;11.326;2022-10-31T11:44:14;15.57;;;2.97;;
21297;SDS011;10808;48.010;11.326;2022-10-31T11:46:45;14.50;;;3.50;;
21297;SDS011;10808;48.010;11.326;2022-10-31T11:51:52;9.23;;;3.03;;
21297;SDS011;10808;48.010;11.326;2022-10-31T11:54:25;9.20;;;2.90;;
21297;SDS011;10808;48.010;11.326;2022-10-31T11:56:55;7.47;;;3.00;;
21297;SDS011;10808;48.010;11.326;2022-10-31T11:59:31;11.25;;;3.35;;
21297;SDS011;10808;48.010;11.326;2022-10-31T12:01:59;9.35;;;3.42;;
21297;SDS011;10808;48.010;11.326;2022-10-31T12:06:55;9.05;;;3.05;;
21297;SDS011;10808;48.010;11.326;2022-10-31T12:09:23;14.60;;;3.33;;
21297;SDS011;10808;48.010;11.326;2022-10-31T12:15:11;10.68;;;3.55;;
21297;SDS011;10808;48.010;11.326;2022-10-31T12:26:44;10.98;;;3.13;;
21297;SDS011;10808;48.010;11.326;2022-10-31T12:32:26;8.95;;;3.30;;
21297;SDS011;10808;48.010;11.326;2022-10-31T12:35:15;9.77;;;3.20;;
21297;SDS011;10808;48.010;11.326;2022-10-31T12:43:47;12.33;;;3.03;;
21297;SDS011;10808;48.010;11.326;2022-10-31T12:46:22;7.93;;;2.85;;
21297;SDS011;10808;48.010;11.326;2022-10-31T12:51:59;9.52;;;2.85;;
21297;SDS011;10808;48.010;11.326;2022-10-31T12:57:23;13.30;;;3.60;;
21297;SDS011;10808;48.010;11.326;2022-10-31T13:00:12;7.78;;;2.90;;
21297;SDS011;10808;48.010;11.326;2022-10-31T13:02:46;5.65;;;2.85;;
21297;SDS011;10808;48.010;11.326;2022-10-31T13:11:34;12.77;;;3.40;;
21297;SDS011;10808;48.010;11.326;2022-10-31T13:19:58;12.05;;;3.25;;
21297;SDS011;10808;48.010;11.326;2022-10-31T13:22:38;14.13;;;3.97;;
21297;SDS011;10808;48.010;11.326;2022-10-31T13:27:50;10.60;;;3.30;;
21297;SDS011;10808;48.010;11.326;2022-10-31T13:30:32;9.00;;;3.10;;
21297;SDS011;10808;48.010;11.326;2022-10-31T13:33:11;9.20;;;2.83;;
21297;SDS011;10808;48.010;11.326;2022-10-31T13:35:43;10.68;;;3.50;;
21297;SDS011;10808;48.010;11.326;2022-10-31T13:38:22;9.80;;;3.17;;
21297;SDS011;10808;48.010;11.326;2022-10-31T13:40:58;7.50;;;2.75;;
21297;SDS011;10808;48.010;11.326;2022-10-31T13:48:57;12.02;;;3.40;;
21297;SDS011;10808;48.010;11.326;2022-10-31T13:51:27;11.20;;;3.40;;
21297;SDS011;10808;48.010;11.326;2022-10-31T13:56:21;9.25;;;3.10;;
21297;SDS011;10808;48.010;11.326;2022-10-31T13:59:00;11.17;;;3.37;;
21297;SDS011;10808;48.010;11.326;2022-10-31T14:01:36;14.02;;;3.35;;
21297;SDS011;10808;48.010;11.326;2022-10-31T14:04:14;9.95;;;2.90;;
21297;SDS011;10808;48.010;11.326;2022-10-31T14:07:10;8.60;;;2.80;;
21297;SDS011;10808;48.010;11.326;2022-10-31T14:09:49;8.05;;;2.88;;
21297;SDS011;10808;48.010;11.326;2022-10-31T14:14:55;8.75;;;3.10;;
21297;SDS011;10808;48.010;11.326;2022-10-31T14:17:25;16.17;;;3.37;;
21297;SDS011;10808;48.010;11.326;2022-10-31T14:20:39;8.85;;;2.97;;
21297;SDS011;10808;48.010;11.326;2022-10-31T14:22:45;7.90;;;2.85;;
21297;SDS011;10808;48.010;11.326;2022-10-31T14:25:24;11.20;;;3.03;;
21297;SDS011;10808;48.010;11.326;2022-10-31T14:27:52;8.75;;;2.80;;
21297;SDS011;10808;48.010;11.326;2022-10-31T14:30:19;13.05;;;3.30;;
21297;SDS011;10808;48.010;11.326;2022-10-31T14:32:52;10.48;;;3.15;;
21297;SDS011;10808;48.010;11.326;2022-10-31T14:35:20;10.13;;;2.92;;
21297;SDS011;10808;48.010;11.326;2022-10-31T14:38:02;9.73;;;3.13;;
21297;SDS011;10808;48.010;11.326;2022-10-31T14:43:32;8.13;;;2.90;;
21297;SDS011;10808;48.010;11.326;2022-10-31T14:52:13;11.25;;;3.45;;
21297;SDS011;10808;48.010;11.326;2022-10-31T14:54:43;16.30;;;3.67;;
21297;SDS011;10808;48.010;11.326;2022-10-31T14:57:20;9.13;;;2.97;;
21297;SDS011;10808;48.010;11.326;2022-10-31T15:00:02;16.17;;;3.55;;
21297;SDS011;10808;48.010;11.326;2022-10-31T15:02:34;8.25;;;2.70;;
21297;SDS011;10808;48.010;11.326;2022-10-31T15:05:14;9.80;;;3.07;;
21297;SDS011;10808;48.010;11.326;2022-10-31T15:07:48;7.25;;;2.90;;
21297;SDS011;10808;48.010;11.326;2022-10-31T15:10:25;14.65;;;3.25;;
21297;SDS011;10808;48.010;11.326;2022-10-31T15:13:10;12.73;;;3.10;;
21297;SDS011;10808;48.010;11.326;2022-10-31T15:15:42;10.57;;;3.10;;
21297;SDS011;10808;48.010;11.326;2022-10-31T15:18:31;8.18;;;3.08;;
21297;SDS011;10808;48.010;11.326;2022-10-31T15:20:56;15.50;;;3.75;;
21297;SDS011;10808;48.010;11.326;2022-10-31T15:23:24;10.30;;;3.40;;
21297;SDS011;10808;48.010;11.326;2022-10-31T15:25:59;11.63;;;3.60;;
21297;SDS011;10808;48.010;11.326;2022-10-31T15:28:27;11.70;;;3.38;;
21297;SDS011;10808;48.010;11.326;2022-10-31T15:30:54;8.13;;;3.45;;
21297;SDS011;10808;48.010;11.326;2022-10-31T15:33:23;10.53;;;3.10;;
21297;SDS011;10808;48.010;11.326;2022-10-31T15:35:58;10.55;;;3.25;;
21297;SDS011;10808;48.010;11.326;2022-10-31T15:38:26;10.82;;;3.95;;
21297;SDS011;10808;48.010;11.326;2022-10-31T15:40:57;9.48;;;4.05;;
21297;SDS011;10808;48.010;11.326;2022-10-31T15:43:27;9.70;;;3.47;;
21297;SDS011;10808;48.010;11.326;2022-10-31T15:46:02;12.15;;;3.63;;
21297;SDS011;10808;48.010;11.326;2022-10-31T15:48:29;11.48;;;3.58;;
21297;SDS011;10808;48.010;11.326;2022-10-31T15:50:59;13.50;;;3.20;;
21297;SDS011;10808;48.010;11.326;2022-10-31T15:53:49;10.25;;;3.00;;
21297;SDS011;10808;48.010;11.326;2022-10-31T15:56:23;8.55;;;3.22;;
21297;SDS011;10808;48.010;11.326;2022-10-31T15:58:55;11.60;;;3.75;;
21297;SDS011;10808;48.010;11.326;2022-10-31T16:01:27;10.52;;;3.72;;
21297;SDS011;10808;48.010;11.326;2022-10-31T16:04:00;18.35;;;4.15;;
21297;SDS011;10808;48.010;11.326;2022-10-31T16:06:28;27.38;;;4.10;;
21297;SDS011;10808;48.010;11.326;2022-10-31T16:08:55;13.60;;;3.65;;
21297;SDS011;10808;48.010;11.326;2022-10-31T16:14:01;21.83;;;4.30;;
21297;SDS011;10808;48.010;11.326;2022-10-31T16:16:41;42.60;;;5.70;;
21297;SDS011;10808;48.010;11.326;2022-10-31T16:19:19;31.05;;;4.10;;
21297;SDS011;10808;48.010;11.326;2022-10-31T16:22:05;13.20;;;3.97;;
21297;SDS011;10808;48.010;11.326;2022-10-31T16:24:51;17.17;;;4.63;;
21297;SDS011;10808;48.010;11.326;2022-10-31T16:27:24;41.65;;;5.80;;
21297;SDS011;10808;48.010;11.326;2022-10-31T16:29:57;28.20;;;5.40;;
21297;SDS011;10808;48.010;11.326;2022-10-31T16:35:17;18.33;;;5.78;;
21297;SDS011;10808;48.010;11.326;2022-10-31T16:38:03;24.25;;;6.15;;
21297;SDS011;10808;48.010;11.326;2022-10-31T16:40:30;14.13;;;5.38;;
21297;SDS011;10808;48.010;11.326;2022-10-31T16:42:57;15.68;;;6.10;;
21297;SDS011;10808;48.010;11.326;2022-10-31T16:45:25;16.63;;;7.13;;
21297;SDS011;10808;48.010;11.326;2022-10-31T16:47:53;17.80;;;7.32;;
21297;SDS011;10808;48.010;11.326;2022-10-31T16:50:26;15.63;;;7.53;;
21297;SDS011;10808;48.010;11.326;2022-10-31T16:52:53;14.63;;;7.43;;
21297;SDS011;10808;48.010;11.326;2022-10-31T16:55:19;17.77;;;6.80;;
21297;SDS011;10808;48.010;11.326;2022-10-31T16:57:47;11.47;;;4.60;;
21297;SDS011;10808;48.010;11.326;2022-10-31T17:00:16;12.30;;;4.40;;
21297;SDS011;10808;48.010;11.326;2022-10-31T17:02:46;8.73;;;4.95;;
21297;SDS011;10808;48.010;11.326;2022-10-31T17:05:15;9.82;;;5.05;;